Startpagina
METAR-TAF:

METAR-TAF

Vliegvelden :

Nörvenich, Duitsland

breedte: 50-50N, lengte: 006-40E, hoogte: 118 m

Actueel weer

Dit bericht is 52 minuten geleden gemaakt, om 18:20 UTC
Wind 3 kt uit het oostnoordoosten
Temperatuur 20°C
Vochtigheid 40%
Druk 1016 hPa
Zicht 10 km of meer
Weinig wolken op 30000 ft

METAR: ETNN 191820Z 07003KT 9999 FEW300 20/06 Q1016 BLU+

Tijdstip: 21:12 (19:12 UTC)

Verwachting

Dit bericht is 2 uur en het 52 minuten geleden gemaakt, om 16:20 UTC
Verwachting geldig van 19 om 17 UTC tot 20 om 02 UTC
Wind 8 kt uit het oostnoordoosten
Zicht 10 km of meer
Onbewolkt
Wijzigt naar
van 19 om 21 UTC tot 19 om 23 UTC
Wind 5 kt uit het zuidoosten
Zicht 10 km of meer
Verspreide wolken op 30000 ft

TAF: ETNN 191620Z 1917/2002 06008KT 9999 NSW SKC BECMG 1921/1923 13005KT 9999 NSW SCT300 BY ETGL

Waarnemingen en weersverwachtingen van meer dan 4000 vliegvelden (METAR en TAF).

De beschikbare stations zijn de gele en rode punten op de kaart.

Ga met uw muis naar het station om de naam te zien.

Klik dan om waarnemingen en weersverwachtingen te zien.

kaart wijzigen: klik op de groene knoppen met een zwart kruis om in te zoomen, op de groene knop met een streepje om uit te zoomen of op de groene pijlen voor aangrenzende kaarten.


METAR-TAF: